Terminal Aerodrome Forecast
Issued by NWS Detroit/Pontiac, MI

Home | Current Version | Previous Version | Text Only | Print | Product List | Glossary On
Versions: 1 2 3 4 5 6 7 8 9 10 11 12 13 14 15 16 17 18 19 20 21 22 23 24 25 26 27 28 29
000
FTUS43 KDTX 012000 AAB
TAFDTW
TAF AMD
KDTW 012038Z 0121/0224 20012G18KT P6SM SCT025 BKN040 BKN070
      TEMPO 0122/0124 1SM +SHRA BKN025 OVC040
     FM020000 23010KT P6SM SCT035 BKN070 OVC200
     FM020700 23005KT 4SM BR OVC015
     FM021300 27007KT P6SM SCT020 BKN040=

USA.gov is the U.S. government's official web portal to all federal, state and local government web resources and services.